Time;durP1;ratioP1;P1;durP2;ratioP2;P2;SDS_P1;SDS_P2;PMS_P1;PMS_P2;Temp;Humidity;BMP_temperature;BMP_pressure;BME280_temperature;BME280_humidity;BME280_pressure;Samples;Min_cycle;Max_cycle;Signal;HPM_P1;HPM_P2
2020/12/22 00:02:28;;;;;;;2.70;2.20;;;;;;;10.01;100.00;100559.00;5075428;28;20094;-69
2020/12/22 00:05:12;;;;;;;5.22;2.30;;;;;;;9.97;100.00;100522.97;5074445;28;20074;-69
2020/12/22 00:07:56;;;;;;;3.85;2.35;;;;;;;10.02;100.00;100534.03;5074025;28;20052;-69
2020/12/22 00:10:40;;;;;;;2.70;2.40;;;;;;;10.01;100.00;100540.34;5075088;28;20044;-69
2020/12/22 00:13:24;;;;;;;3.15;2.38;;;;;;;10.05;100.00;100532.00;5074035;28;20511;-70
2020/12/22 00:16:08;;;;;;;3.83;2.13;;;;;;;10.07;100.00;100523.84;5075168;28;20043;-66
2020/12/22 00:18:52;;;;;;;2.20;1.73;;;;;;;10.13;100.00;100512.66;5074943;28;20048;-69
2020/12/22 00:21:36;;;;;;;1.92;1.55;;;;;;;10.12;100.00;100510.97;5075189;28;20408;-69
2020/12/22 00:24:21;;;;;;;2.90;2.17;;;;;;;10.15;100.00;100511.56;5074019;28;20618;-68
2020/12/22 00:27:05;;;;;;;2.65;2.00;;;;;;;10.16;100.00;100505.25;5074746;28;20524;-69
2020/12/22 00:29:49;;;;;;;4.18;1.63;;;;;;;10.23;100.00;100513.53;5074667;28;20048;-69
2020/12/22 00:32:34;;;;;;;2.42;1.73;;;;;;;10.27;100.00;100508.66;5074679;28;20051;-68
2020/12/22 00:35:19;;;;;;;1.85;1.63;;;;;;;10.29;100.00;100497.84;5073538;28;20055;-70
2020/12/22 00:38:03;;;;;;;1.98;1.70;;;;;;;10.29;100.00;100500.50;5073356;28;20044;-69
2020/12/22 00:40:47;;;;;;;2.13;1.40;;;;;;;10.33;100.00;100492.09;5073767;28;20051;-70
2020/12/22 00:43:31;;;;;;;1.40;1.30;;;;;;;10.35;100.00;100479.47;5074867;28;20459;-70
2020/12/22 00:46:16;;;;;;;1.67;1.52;;;;;;;10.37;100.00;100506.84;5073583;28;20086;-69
2020/12/22 00:49:00;;;;;;;1.98;1.40;;;;;;;10.38;100.00;100487.22;5073230;28;20052;-69
2020/12/22 00:51:44;;;;;;;2.25;1.33;;;;;;;10.41;100.00;100492.25;5073245;28;20139;-70
2020/12/22 00:54:29;;;;;;;2.67;1.30;;;;;;;10.43;100.00;100508.13;5074185;28;20512;-69
2020/12/22 00:57:15;;;;;;;1.30;1.20;;;;;;;10.45;100.00;100483.00;5074271;28;20067;-67
2020/12/22 00:59:59;;;;;;;2.72;1.00;;;;;;;10.55;100.00;100515.03;5073331;28;20454;-70
2020/12/22 01:02:43;;;;;;;1.77;1.20;;;;;;;10.56;100.00;100488.19;5073322;28;20110;-69
2020/12/22 01:05:26;;;;;;;2.72;1.45;;;;;;;10.63;100.00;100492.00;5074220;28;20059;-69
2020/12/22 01:08:11;;;;;;;1.40;1.08;;;;;;;10.75;100.00;100484.72;5074099;28;20140;-69
2020/12/22 01:10:55;;;;;;;1.20;1.10;;;;;;;10.86;100.00;100501.41;5072871;28;20131;-69
2020/12/22 01:13:39;;;;;;;1.08;0.90;;;;;;;10.91;100.00;100491.19;5073884;28;20093;-69
2020/12/22 01:16:23;;;;;;;1.38;0.98;;;;;;;11.03;100.00;100508.72;5072983;28;20097;-68
2020/12/22 01:19:07;;;;;;;1.30;1.08;;;;;;;11.06;100.00;100523.59;5058854;28;20093;-68
2020/12/22 01:21:52;;;;;;;1.83;1.20;;;;;;;11.12;100.00;100510.53;5073958;28;20047;-69
2020/12/22 01:24:37;;;;;;;1.25;1.15;;;;;;;11.16;100.00;100522.59;5073960;28;20097;-68
2020/12/22 01:27:21;;;;;;;1.63;1.30;;;;;;;11.12;100.00;100507.88;5073515;28;20050;-67
2020/12/22 01:30:05;;;;;;;2.25;1.33;;;;;;;11.07;100.00;100526.13;5072840;28;20097;-69
2020/12/22 01:32:51;;;;;;;1.67;1.00;;;;;;;11.08;100.00;100519.78;5073623;28;20055;-69
2020/12/22 01:35:35;;;;;;;1.25;0.95;;;;;;;11.05;100.00;100525.41;5073491;28;20496;-69
2020/12/22 01:38:18;;;;;;;1.13;0.90;;;;;;;11.04;100.00;100552.25;5071914;28;20063;-69
2020/12/22 01:41:03;;;;;;;;;;;;;;;11.02;100.00;100536.38;5072822;28;20052;-69
2020/12/22 01:44:02;;;;;;;1.33;0.80;;;;;;;11.03;100.00;100548.72;5073674;28;19919;-68
2020/12/22 01:46:48;;;;;;;2.38;0.85;;;;;;;11.02;100.00;100524.84;5073498;28;20568;-67
2020/12/22 01:49:32;;;;;;;0.93;0.70;;;;;;;11.00;100.00;100517.00;5072484;28;20052;-69
2020/12/22 01:52:16;;;;;;;1.50;0.80;;;;;;;10.96;100.00;100520.09;5073270;28;20418;-69
2020/12/22 01:55:00;;;;;;;0.90;0.82;;;;;;;10.95;100.00;100511.25;5072373;28;20471;-69
2020/12/22 01:57:45;;;;;;;1.33;1.00;;;;;;;10.90;100.00;100513.50;5073465;28;20055;-69
2020/12/22 02:00:29;;;;;;;1.35;1.00;;;;;;;10.93;100.00;100531.88;5072438;28;20462;-69
2020/12/22 02:03:14;;;;;;;1.10;1.00;;;;;;;10.94;100.00;100522.91;5072421;28;20055;-67
2020/12/22 02:05:58;;;;;;;1.00;0.90;;;;;;;10.97;100.00;100505.78;5073310;28;20550;-69
2020/12/22 02:08:42;;;;;;;0.70;0.70;;;;;;;11.00;100.00;100510.81;5072319;28;20056;-68
2020/12/22 02:11:30;;;;;;;1.52;0.90;;;;;;;10.98;100.00;100508.28;5073346;28;20047;-68
2020/12/22 02:14:14;;;;;;;0.85;0.60;;;;;;;11.02;100.00;100528.38;5072070;28;20504;-69
2020/12/22 02:16:58;;;;;;;0.90;0.90;;;;;;;11.01;100.00;100517.84;5073148;28;20520;-69
2020/12/22 02:19:43;;;;;;;0.70;0.65;;;;;;;10.99;100.00;100518.00;5071942;28;20048;-69
2020/12/22 02:22:26;;;;;;;0.68;0.60;;;;;;;11.03;100.00;100506.03;5072451;28;20090;-69
2020/12/22 02:25:18;;;;;;;1.00;0.80;;;;;;;11.03;100.00;100495.38;5071926;28;20562;-69
2020/12/22 02:28:02;;;;;;;0.77;0.75;;;;;;;11.04;100.00;100504.25;5072759;28;20052;-69
2020/12/22 02:30:46;;;;;;;1.05;0.90;;;;;;;11.07;100.00;100504.78;5072209;28;20054;-69
2020/12/22 02:33:30;;;;;;;0.70;0.68;;;;;;;11.06;100.00;100496.94;5071853;28;20488;-69
2020/12/22 02:36:15;;;;;;;1.42;0.80;;;;;;;11.04;100.00;100518.41;5071809;28;20101;-69
2020/12/22 02:38:59;;;;;;;1.75;0.88;;;;;;;11.06;100.00;100512.94;5072802;28;20047;-69
2020/12/22 02:41:43;;;;;;;0.60;0.60;;;;;;;11.07;100.00;100520.78;5057635;28;20050;-69
2020/12/22 02:44:27;;;;;;;0.80;0.77;;;;;;;11.09;100.00;100505.50;5071767;28;20059;-68
2020/12/22 02:47:13;;;;;;;2.17;1.02;;;;;;;11.09;100.00;100510.84;5071741;28;20051;-68
2020/12/22 02:49:57;;;;;;;1.27;0.98;;;;;;;11.09;100.00;100520.66;5071792;28;20052;-69
2020/12/22 02:52:41;;;;;;;1.27;1.02;;;;;;;11.09;100.00;100525.97;5076842;28;20400;-69
2020/12/22 02:55:25;;;;;;;1.00;0.77;;;;;;;11.12;100.00;100513.22;5061925;28;20042;-69
2020/12/22 02:58:08;;;;;;;0.93;0.60;;;;;;;11.13;100.00;100509.56;5075545;28;20405;-69
2020/12/22 03:00:52;;;;;;;1.70;0.93;;;;;;;11.10;100.00;100507.19;5076668;28;20052;-68
2020/12/22 03:03:36;;;;;;;0.93;0.70;;;;;;;11.09;100.00;100494.81;5075358;28;20063;-69
2020/12/22 03:06:21;;;;;;;0.68;0.52;;;;;;;11.12;100.00;100491.88;5075483;28;20127;-69
2020/12/22 03:09:07;;;;;;;1.13;0.80;;;;;;;11.11;100.00;100487.50;5076177;28;20047;-67
2020/12/22 03:11:51;;;;;;;1.95;0.80;;;;;;;11.14;100.00;100476.53;5075430;28;20101;-69
2020/12/22 03:14:35;;;;;;;3.15;0.88;;;;;;;11.17;100.00;100470.91;5075135;28;20051;-69
2020/12/22 03:17:18;;;;;;;1.83;0.60;;;;;;;11.18;100.00;100477.94;5075143;28;20056;-69
2020/12/22 03:20:12;;;;;;;0.70;0.70;;;;;;;11.16;100.00;100479.91;5076213;28;20047;-69
2020/12/22 03:22:56;;;;;;;1.52;0.90;;;;;;;11.18;100.00;100485.13;5075268;28;20132;-69
2020/12/22 03:25:40;;;;;;;0.75;0.75;;;;;;;11.17;100.00;100497.59;5074939;28;20148;-69
2020/12/22 03:28:24;;;;;;;0.93;0.70;;;;;;;11.21;100.00;100490.16;5075052;28;20048;-69
2020/12/22 03:31:08;;;;;;;1.58;0.60;;;;;;;11.21;100.00;100509.69;5076140;28;20048;-69
2020/12/22 03:33:52;;;;;;;1.70;1.00;;;;;;;11.19;100.00;100495.66;5074880;28;20128;-69
2020/12/22 03:36:36;;;;;;;0.73;0.73;;;;;;;11.22;100.00;100494.50;5074786;28;20167;-69
2020/12/22 03:39:21;;;;;;;1.67;0.73;;;;;;;11.26;100.00;100499.41;5075693;28;20043;-69
2020/12/22 03:42:04;;;;;;;0.57;0.57;;;;;;;11.28;100.00;100518.78;5074918;28;20046;-69
2020/12/22 03:44:49;;;;;;;0.70;0.70;;;;;;;11.29;100.00;100507.13;5074599;28;20075;-69
2020/12/22 03:47:33;;;;;;;2.00;0.82;;;;;;;11.33;100.00;100513.88;5075626;28;20051;-69
2020/12/22 03:50:18;;;;;;;0.63;0.63;;;;;;;11.31;100.00;100504.31;5074783;28;20396;-68
2020/12/22 03:53:02;;;;;;;0.73;0.68;;;;;;;11.30;100.00;100516.84;5075765;28;20420;-69
2020/12/22 03:55:46;;;;;;;1.08;0.60;;;;;;;11.33;100.00;100513.88;5074702;28;20427;-69
2020/12/22 03:58:30;;;;;;;0.55;0.55;;;;;;;11.34;100.00;100518.22;5075332;28;20097;-67
2020/12/22 04:01:14;;;;;;;0.77;0.60;;;;;;;11.34;100.00;100522.72;5074473;28;20097;-69
2020/12/22 04:03:58;;;;;;;0.70;0.70;;;;;;;11.34;100.00;100515.56;5074684;28;20050;-68
2020/12/22 04:06:42;;;;;;;0.70;0.70;;;;;;;11.33;100.00;100505.88;5075537;28;20066;-68
2020/12/22 04:09:26;;;;;;;1.45;0.65;;;;;;;11.32;100.00;100506.88;5075374;28;20047;-68
2020/12/22 04:12:10;;;;;;;0.50;0.50;;;;;;;11.35;100.00;100505.75;5075392;28;20075;-68
2020/12/22 04:14:54;;;;;;;0.68;0.50;;;;;;;11.37;100.00;100514.44;5074398;28;20051;-69
2020/12/22 04:17:41;;;;;;;1.13;0.70;;;;;;;11.35;100.00;100503.91;5074894;28;20050;-69
2020/12/22 04:20:25;;;;;;;0.70;0.70;;;;;;;11.36;100.00;100502.91;5074224;28;20408;-68
2020/12/22 04:23:09;;;;;;;1.25;0.80;;;;;;;11.36;100.00;100496.75;5075458;28;20129;-69
2020/12/22 04:25:53;;;;;;;3.63;0.73;;;;;;;11.34;100.00;100510.22;5075050;28;20077;-68
2020/12/22 04:28:37;;;;;;;0.52;0.52;;;;;;;11.37;100.00;100493.91;5073621;28;20128;-68
2020/12/22 04:31:22;;;;;;;1.00;0.65;;;;;;;11.38;100.00;100492.94;5075062;28;20423;-69
2020/12/22 04:34:05;;;;;;;0.70;0.60;;;;;;;11.38;100.00;100490.25;5073684;28;20055;-69
2020/12/22 04:36:49;;;;;;;1.63;0.60;;;;;;;11.39;100.00;100478.59;5073573;28;20467;-68
2020/12/22 04:39:33;;;;;;;2.15;0.63;;;;;;;11.40;100.00;100482.13;5075466;28;20078;-68
2020/12/22 04:42:21;;;;;;;0.82;0.60;;;;;;;11.42;100.00;100499.69;5073481;28;20052;-68
2020/12/22 04:45:05;;;;;;;1.35;0.60;;;;;;;11.42;100.00;100493.50;5074729;28;20055;-68
2020/12/22 04:47:50;;;;;;;2.08;0.70;;;;;;;11.43;100.00;100490.69;5074207;28;20090;-68
2020/12/22 04:50:34;;;;;;;0.60;0.60;;;;;;;11.44;100.00;100497.69;5074608;28;20094;-68
2020/12/22 04:53:18;;;;;;;1.38;0.50;;;;;;;11.46;100.00;100498.41;5074285;28;20523;-69
2020/12/22 04:56:07;;;;;;;0.65;0.63;;;;;;;11.46;100.00;100546.44;5074237;28;20086;-69
2020/12/22 04:58:51;;;;;;;0.50;0.45;;;;;;;11.47;100.00;100510.75;5073211;28;20055;-69
2020/12/22 05:01:35;;;;;;;2.67;0.70;;;;;;;11.47;100.00;100489.41;5074402;28;20523;-68
2020/12/22 05:04:19;;;;;;;1.13;0.45;;;;;;;11.47;100.00;100501.91;5073355;28;20089;-69
2020/12/22 05:07:04;;;;;;;1.33;0.50;;;;;;;11.43;100.00;100498.69;5073954;28;20043;-68
2020/12/22 05:09:49;;;;;;;0.50;0.50;;;;;;;11.48;100.00;100506.28;5072925;28;20047;-69
2020/12/22 05:12:33;;;;;;;0.77;0.57;;;;;;;11.49;100.00;100503.44;5073546;28;20091;-69
2020/12/22 05:15:17;;;;;;;0.70;0.70;;;;;;;11.45;100.00;100483.38;5073117;28;20522;-69
2020/12/22 05:18:02;;;;;;;0.93;0.88;;;;;;;11.45;100.00;100490.56;5073063;28;20043;-68
2020/12/22 05:20:48;;;;;;;2.13;0.50;;;;;;;11.48;100.00;100480.41;5072750;28;20139;-68
2020/12/22 05:23:32;;;;;;;3.90;0.68;;;;;;;11.49;100.00;100503.44;5072965;28;20173;-69
2020/12/22 05:26:22;;;;;;;0.98;0.60;;;;;;;11.48;100.00;100501.75;5073865;28;20121;-68
2020/12/22 05:29:17;;;;;;;1.25;0.55;;;;;;;11.51;100.00;100504.16;5072748;28;20051;-66
2020/12/22 05:32:03;;;;;;;0.50;0.50;;;;;;;11.52;100.00;100518.34;5072822;28;20460;-68
2020/12/22 05:34:47;;;;;;;1.48;0.50;;;;;;;11.51;100.00;100504.16;5073515;28;20507;-69
2020/12/22 05:37:32;;;;;;;0.75;0.50;;;;;;;11.54;100.00;100517.22;5073286;28;20578;-68
2020/12/22 05:40:18;;;;;;;0.68;0.50;;;;;;;11.53;100.00;100518.19;5072558;28;20136;-68
2020/12/22 05:43:03;;;;;;;2.20;0.70;;;;;;;11.52;100.00;100508.50;5073744;28;20051;-69
2020/12/22 05:45:49;;;;;;;1.50;0.50;;;;;;;11.52;100.00;100499.66;5072719;28;20051;-68
2020/12/22 05:48:34;;;;;;;2.45;0.63;;;;;;;11.54;100.00;100500.34;5072347;28;20052;-68
2020/12/22 05:51:19;;;;;;;0.60;0.50;;;;;;;11.54;100.00;100506.53;5072554;28;20455;-68
2020/12/22 05:54:05;;;;;;;2.35;0.60;;;;;;;11.57;100.00;100500.94;5073580;28;20051;-68
2020/12/22 05:56:49;;;;;;;1.35;0.50;;;;;;;11.58;100.00;100505.28;5072167;28;20507;-68
2020/12/22 05:59:32;;;;;;;3.10;0.57;;;;;;;11.58;100.00;100507.94;5073208;28;20048;-68
2020/12/22 06:02:23;;;;;;;0.55;0.55;;;;;;;11.59;100.00;100498.94;5072389;28;20151;-68
2020/12/22 06:05:08;;;;;;;0.77;0.50;;;;;;;11.59;100.00;100498.94;5072093;28;20123;-69
2020/12/22 06:07:52;;;;;;;0.63;0.63;;;;;;;11.64;100.00;100512.72;5072230;28;20051;-68
2020/12/22 06:10:36;;;;;;;1.55;0.40;;;;;;;11.65;100.00;100503.72;5073124;28;20059;-68
2020/12/22 06:13:21;;;;;;;0.50;0.50;;;;;;;11.66;100.00;100512.59;5072356;28;20197;-68
2020/12/22 06:16:13;;;;;;;1.63;0.55;;;;;;;11.68;100.00;100514.09;5073061;28;20048;-68
2020/12/22 06:18:57;;;;;;;0.95;0.68;;;;;;;11.66;100.00;100521.41;5072129;28;20515;-68
2020/12/22 06:21:41;;;;;;;2.83;0.60;;;;;;;11.71;100.00;100524.50;5072270;28;20051;-68
2020/12/22 06:24:26;;;;;;;0.80;0.40;;;;;;;11.75;100.00;100525.03;5074262;28;20055;-68
2020/12/22 06:27:12;;;;;;;1.50;0.50;;;;;;;11.75;100.00;100530.38;5077265;28;20047;-69
2020/12/22 06:29:56;;;;;;;3.00;0.52;;;;;;;11.71;100.00;100532.53;5075887;28;20586;-68
2020/12/22 06:32:41;;;;;;;0.40;0.40;;;;;;;11.74;100.00;100518.03;5076546;28;20087;-68
2020/12/22 06:35:30;;;;;;;0.47;0.47;;;;;;;11.74;100.00;100518.03;5076022;28;20097;-67
2020/12/22 06:38:15;;;;;;;1.52;0.55;;;;;;;11.74;100.00;100524.22;5062056;28;20047;-69
2020/12/22 06:40:59;;;;;;;2.17;0.52;;;;;;;11.72;100.00;100528.00;5075783;28;20516;-69
2020/12/22 06:43:45;;;;;;;1.50;0.40;;;;;;;11.75;100.00;100528.56;5077000;28;20086;-68
2020/12/22 06:46:32;;;;;;;1.40;0.40;;;;;;;11.73;100.00;100543.91;5076661;28;20098;-69
2020/12/22 06:49:16;;;;;;;3.15;0.60;;;;;;;11.74;100.00;100540.25;5076869;28;20582;-69
2020/12/22 06:52:00;;;;;;;0.52;0.40;;;;;;;11.70;100.00;100536.19;5075911;28;20492;-69
2020/12/22 06:54:49;;;;;;;0.70;0.60;;;;;;;11.72;100.00;100542.22;5075548;28;20047;-69
2020/12/22 06:57:45;;;;;;;1.40;0.63;;;;;;;11.74;100.00;100547.41;5075519;28;20067;-69
2020/12/22 07:00:30;;;;;;;0.73;0.50;;;;;;;11.72;100.00;100546.72;5076699;28;20045;-69
2020/12/22 07:03:15;;;;;;;0.20;0.20;;;;;;;11.72;100.00;100554.72;5076675;28;20052;-69
2020/12/22 07:05:59;;;;;;;2.60;0.75;;;;;;;11.71;100.00;100555.72;5061156;28;20047;-69
2020/12/22 07:08:43;;;;;;;0.73;0.70;;;;;;;11.70;100.00;100552.22;5075259;28;20099;-69
2020/12/22 07:11:28;;;;;;;2.97;0.80;;;;;;;11.69;100.00;100553.16;5061634;28;20050;-69
2020/12/22 07:14:23;;;;;;;1.95;0.40;;;;;;;11.70;100.00;100554.88;5076180;28;20097;-69
2020/12/22 07:17:07;;;;;;;0.10;0.10;;;;;;;11.70;100.00;100554.03;5075248;28;20417;-68
2020/12/22 07:19:53;;;;;;;0.10;0.10;;;;;;;11.70;100.00;100544.19;5075075;28;20047;-69
2020/12/22 07:22:38;;;;;;;0.10;0.10;;;;;;;11.71;100.00;100551.22;5075023;28;20083;-68
2020/12/22 07:25:24;;;;;;;0.10;0.10;;;;;;;11.73;100.00;100557.25;5075515;28;20426;-68
2020/12/22 07:28:10;;;;;;;0.10;0.10;;;;;;;11.73;100.00;100559.94;5075816;28;20066;-69
2020/12/22 07:30:54;;;;;;;0.10;0.10;;;;;;;11.73;100.00;100551.91;5074883;28;20405;-69
2020/12/22 07:33:44;;;;;;;3.50;0.70;;;;;;;11.73;100.00;100570.59;5075876;28;20051;-69
2020/12/22 07:36:28;;;;;;;2.90;0.70;;;;;;;11.74;100.00;100560.75;5075130;28;20052;-69
2020/12/22 07:39:21;;;;;;;0.50;0.50;;;;;;;11.75;100.00;100568.63;5060941;28;20040;-69
2020/12/22 07:42:12;;;;;;;3.28;0.80;;;;;;;11.74;100.00;100569.63;5075737;28;20051;-69
2020/12/22 07:45:06;;;;;;;1.92;0.65;;;;;;;11.74;100.00;100599.00;5075905;28;20121;-68
2020/12/22 07:47:51;;;;;;;1.52;0.80;;;;;;;11.75;100.00;100571.31;5074416;28;20125;-69
2020/12/22 07:50:35;;;;;;;2.30;0.68;;;;;;;11.76;100.00;100586.34;5075819;28;20046;-69
2020/12/22 07:53:19;;;;;;;1.65;0.95;;;;;;;11.75;100.00;100595.34;5075452;28;20048;-69
2020/12/22 07:56:05;;;;;;;0.80;0.77;;;;;;;11.78;100.00;100600.38;5074445;28;20079;-69
2020/12/22 07:58:52;;;;;;;1.42;1.00;;;;;;;11.79;100.00;100593.22;5074431;28;20463;-69
2020/12/22 08:01:46;;;;;;;0.65;0.65;;;;;;;11.79;100.00;100604.75;5074320;28;20056;-69
2020/12/22 08:04:31;;;;;;;1.63;0.88;;;;;;;11.78;100.00;100610.25;5074564;28;20142;-68
2020/12/22 08:07:18;;;;;;;2.25;1.00;;;;;;;11.81;100.00;100605.47;5074425;28;20097;-69
2020/12/22 08:10:12;;;;;;;2.38;0.70;;;;;;;11.81;100.00;100637.50;5074125;28;20105;-69
2020/12/22 08:12:57;;;;;;;2.33;0.90;;;;;;;11.80;100.00;100627.78;5075167;28;20097;-69
2020/12/22 08:15:41;;;;;;;3.60;0.98;;;;;;;11.83;100.00;100634.69;5075095;28;20463;-69
2020/12/22 08:18:26;;;;;;;0.77;0.65;;;;;;;11.84;100.00;100634.56;5075002;28;20133;-69
2020/12/22 08:21:11;;;;;;;0.90;0.80;;;;;;;11.84;100.00;100642.56;5074262;28;20062;-69
2020/12/22 08:23:57;;;;;;;1.42;0.90;;;;;;;11.85;100.00;100654.06;5074149;28;20063;-69
2020/12/22 08:26:47;;;;;;;1.75;0.77;;;;;;;11.87;100.00;100658.28;5074031;28;20109;-68
2020/12/22 08:29:31;;;;;;;1.00;0.60;;;;;;;11.85;100.00;100648.72;5073951;28;20052;-69
2020/12/22 08:32:22;;;;;;;0.65;0.65;;;;;;;11.86;100.00;100645.09;5075028;28;20547;-69
2020/12/22 08:35:06;;;;;;;1.38;0.88;;;;;;;11.90;100.00;100638.47;5073686;28;20063;-69
2020/12/22 08:37:50;;;;;;;2.95;1.00;;;;;;;11.89;100.00;100645.63;5074410;28;20165;-68
2020/12/22 08:40:34;;;;;;;1.42;0.70;;;;;;;11.90;100.00;100628.63;5074569;28;20437;-69
2020/12/22 08:43:24;;;;;;;1.45;0.90;;;;;;;11.92;100.00;100628.47;5073809;28;20056;-69
2020/12/22 08:46:11;;;;;;;0.80;0.70;;;;;;;11.91;100.00;100633.00;5073709;28;20451;-69
2020/12/22 08:48:55;;;;;;;2.05;1.20;;;;;;;11.90;100.00;100636.63;5073406;28;20123;-69
2020/12/22 08:51:39;;;;;;;1.20;0.90;;;;;;;11.90;100.00;100658.00;5074630;28;20515;-68
2020/12/22 08:54:27;;;;;;;2.90;0.98;;;;;;;11.90;100.00;100649.16;5074352;28;20559;-68
2020/12/22 08:57:16;;;;;;;2.28;0.80;;;;;;;11.90;100.00;100655.31;5073250;28;20050;-68
2020/12/22 09:00:26;;;;;;;0.70;0.70;;;;;;;11.90;100.00;100658.00;5073496;28;20599;-68
2020/12/22 09:03:10;;;;;;;2.55;1.15;;;;;;;11.90;100.00;100650.00;5074154;28;20055;-67
2020/12/22 09:05:54;;;;;;;0.90;0.88;;;;;;;11.92;100.00;100650.72;5073049;28;20087;-69
2020/12/22 09:08:39;;;;;;;2.13;1.00;;;;;;;11.92;100.00;100653.38;5074106;28;20131;-68
2020/12/22 09:11:23;;;;;;;1.17;0.85;;;;;;;11.93;100.00;100652.41;5073152;28;20055;-68
2020/12/22 09:14:09;;;;;;;2.40;1.05;;;;;;;11.94;100.00;100670.09;5073154;28;20058;-68
2020/12/22 09:16:55;;;;;;;1.20;1.00;;;;;;;11.95;100.00;100668.25;5072952;28;20408;-68
2020/12/22 09:19:44;;;;;;;0.88;0.80;;;;;;;11.95;100.00;100684.28;5073771;28;20047;-68
2020/12/22 09:22:30;;;;;;;2.10;1.20;;;;;;;11.95;100.00;100682.47;5074034;28;20043;-68
2020/12/22 09:25:14;;;;;;;2.30;1.73;;;;;;;11.94;100.00;100680.78;5072731;28;20059;-68
2020/12/22 09:27:59;;;;;;;1.13;1.00;;;;;;;11.95;100.00;100671.78;5073877;28;20048;-67
2020/12/22 09:30:43;;;;;;;1.35;1.17;;;;;;;11.97;100.00;100677.00;5073890;28;20119;-68
2020/12/22 09:33:26;;;;;;;0.98;0.82;;;;;;;11.97;100.00;100680.50;5072711;28;20101;-68
2020/12/22 09:36:11;;;;;;;1.17;1.00;;;;;;;12.02;100.00;100688.94;5073527;28;20146;-68
2020/12/22 09:39:00;;;;;;;1.38;1.00;;;;;;;12.04;100.00;100670.94;5073788;28;20043;-67
2020/12/22 09:41:45;;;;;;;1.42;1.00;;;;;;;12.08;100.00;100700.88;5058738;28;20056;-68
2020/12/22 09:44:28;;;;;;;1.13;0.98;;;;;;;12.06;100.00;100679.63;5073697;28;20043;-68
2020/12/22 09:47:13;;;;;;;5.15;1.48;;;;;;;12.07;100.00;100673.31;5072527;28;20408;-68
2020/12/22 09:49:58;;;;;;;1.10;0.90;;;;;;;12.08;100.00;100683.00;5072562;28;20048;-67
2020/12/22 09:52:42;;;;;;;1.27;0.75;;;;;;;12.09;100.00;100687.38;5073625;28;20177;-67
2020/12/22 09:55:26;;;;;;;2.67;0.93;;;;;;;12.09;100.00;100690.03;5072634;28;20464;-67
2020/12/22 09:58:10;;;;;;;1.90;0.98;;;;;;;12.11;100.00;100689.91;5073164;28;20574;-68
2020/12/22 10:00:54;;;;;;;2.28;1.35;;;;;;;12.12;100.00;100688.91;5073240;28;20086;-68
2020/12/22 10:03:39;;;;;;;1.25;1.15;;;;;;;12.11;100.00;100685.41;5073474;28;20128;-68
2020/12/22 10:06:24;;;;;;;1.17;1.08;;;;;;;12.11;100.00;100681.88;5073083;28;20090;-67
2020/12/22 10:09:09;;;;;;;2.15;1.42;;;;;;;12.10;100.00;100681.03;5071972;28;20098;-66
2020/12/22 10:11:53;;;;;;;2.97;1.73;;;;;;;12.14;100.00;100695.81;5056997;28;20136;-67
2020/12/22 10:14:37;;;;;;;1.10;0.93;;;;;;;12.14;100.00;100679.78;5058172;28;20063;-67
2020/12/22 10:17:21;;;;;;;2.58;0.70;;;;;;;12.15;100.00;100693.97;5072224;28;20039;-66
2020/12/22 10:20:05;;;;;;;4.28;1.10;;;;;;;12.14;100.00;100677.09;5073028;28;20077;-67
2020/12/22 10:22:50;;;;;;;3.72;1.23;;;;;;;12.15;100.00;100677.94;5073240;28;20047;-67
2020/12/22 10:25:34;;;;;;;3.33;1.20;;;;;;;12.15;100.00;100673.44;5072165;28;20119;-67
2020/12/22 10:28:18;;;;;;;1.70;1.30;;;;;;;12.18;100.00;100678.47;5072071;28;20047;-67
2020/12/22 10:31:02;;;;;;;2.72;1.55;;;;;;;12.15;100.00;100681.47;5072945;28;20055;-67
2020/12/22 10:33:47;;;;;;;4.30;1.42;;;;;;;12.20;100.00;100683.69;5071947;28;20083;-67
2020/12/22 10:36:32;;;;;;;0.82;0.82;;;;;;;12.18;100.00;100699.88;5071880;28;20079;-68
2020/12/22 10:39:16;;;;;;;2.65;1.60;;;;;;;12.18;100.00;100675.81;5073708;28;20508;-67
2020/12/22 10:42:00;;;;;;;2.08;1.48;;;;;;;12.17;100.00;100692.84;5072767;28;20074;-67
2020/12/22 10:44:45;;;;;;;4.10;1.20;;;;;;;12.19;100.00;100700.72;5071865;28;20055;-67
2020/12/22 10:47:30;;;;;;;1.30;1.20;;;;;;;12.18;100.00;100699.88;5072595;28;20054;-67
2020/12/22 10:50:14;;;;;;;1.90;1.40;;;;;;;12.16;100.00;100709.88;5071919;28;20047;-67
2020/12/22 10:52:58;;;;;;;8.38;1.40;;;;;;;12.17;100.00;100703.53;5057850;28;20082;-67
2020/12/22 10:55:42;;;;;;;1.63;1.20;;;;;;;12.17;100.00;100702.72;5071715;28;20052;-67
2020/12/22 10:58:26;;;;;;;3.95;1.40;;;;;;;12.16;100.00;100707.19;5072576;28;20781;-67
2020/12/22 11:01:14;;;;;;;1.33;1.05;;;;;;;12.16;100.00;100701.00;5072610;28;20151;-67
2020/12/22 11:03:59;;;;;;;1.95;1.08;;;;;;;12.18;100.00;100699.88;5072815;28;20421;-67
2020/12/22 11:06:57;;;;;;;2.92;1.40;;;;;;;12.19;100.00;100696.19;5071975;28;20101;-67
2020/12/22 11:09:45;;;;;;;2.45;1.25;;;;;;;12.27;100.00;100690.16;5059518;28;20055;-68
2020/12/22 11:12:30;;;;;;;2.65;1.40;;;;;;;12.29;100.00;100705.03;5060603;28;20463;-67
2020/12/22 11:15:14;;;;;;;2.05;1.10;;;;;;;12.31;100.00;100716.44;5075543;28;20066;-65
2020/12/22 11:18:02;;;;;;;2.78;0.90;;;;;;;12.32;100.00;100715.47;5075288;28;20047;-67
2020/12/22 11:20:46;;;;;;;2.13;1.38;;;;;;;12.31;100.00;100684.34;5061433;28;20052;-67
2020/12/22 11:23:31;;;;;;;2.03;1.10;;;;;;;12.30;100.00;100693.34;5061630;28;20126;-67
2020/12/22 11:26:19;;;;;;;1.70;1.20;;;;;;;12.32;100.00;100690.56;5075096;28;20043;-67
2020/12/22 11:29:04;;;;;;;2.53;1.05;;;;;;;12.31;100.00;100692.38;5075121;28;20046;-68
2020/12/22 11:31:50;;;;;;;2.35;1.30;;;;;;;12.30;100.00;100706.72;5075271;28;20052;-67
2020/12/22 11:34:35;;;;;;;1.73;1.38;;;;;;;12.33;100.00;100693.09;5076146;28;20083;-67
2020/12/22 11:37:25;;;;;;;0.80;0.80;;;;;;;12.36;100.00;100707.97;5060855;28;20055;-67
2020/12/22 11:40:21;;;;;;;2.20;1.17;;;;;;;12.35;100.00;100692.94;5060507;28;20047;-68
2020/12/22 11:43:19;;;;;;;;;;;;;;;;;;;;;
2020/12/22 11:46:18;;;;;;;;;;;;;;;;;;;;;
2020/12/22 11:49:10;;;;;;;1.50;1.20;;;;;;;12.36;100.00;100695.47;5074912;28;20047;-68
2020/12/22 11:51:56;;;;;;;2.78;1.40;;;;;;;12.36;100.00;100691.94;5075642;28;20039;-68
2020/12/22 11:54:42;;;;;;;2.80;1.58;;;;;;;12.38;100.00;100692.66;5061178;28;20047;-68
2020/12/22 11:57:27;;;;;;;1.45;1.30;;;;;;;12.39;100.00;100705.88;5074656;28;20492;-68
2020/12/22 12:00:11;;;;;;;2.65;1.38;;;;;;;12.39;100.00;100699.69;5060870;28;20484;-68
2020/12/22 12:02:58;;;;;;;3.15;1.70;;;;;;;12.41;100.00;100695.84;5047097;28;20052;-67
2020/12/22 12:05:43;;;;;;;2.30;1.63;;;;;;;12.43;100.00;100699.25;5061201;28;20056;-68
2020/12/22 12:08:27;;;;;;;3.85;1.63;;;;;;;12.45;100.00;100691.94;5060291;28;20051;-67
2020/12/22 12:11:11;;;;;;;2.70;1.42;;;;;;;12.48;100.00;100694.28;5076931;28;20052;-68
2020/12/22 12:13:57;;;;;;;1.92;1.33;;;;;;;12.50;100.00;100695.00;5060594;28;20059;-68
2020/12/22 12:16:44;;;;;;;2.97;1.65;;;;;;;12.57;100.00;100687.22;5060341;28;20071;-66
2020/12/22 12:19:42;;;;;;;2.92;1.15;;;;;;;12.62;100.00;100693.81;5060824;28;20094;-66
2020/12/22 12:22:27;;;;;;;1.38;1.27;;;;;;;12.61;100.00;100689.44;5059899;28;20170;-66
2020/12/22 12:25:23;;;;;;;1.30;1.20;;;;;;;12.61;100.00;100689.44;5074350;28;20129;-66
2020/12/22 12:28:31;;;;;;;;;;;;;;;;;;;;;
2020/12/22 12:31:17;;;;;;;1.95;1.15;;;;;;;12.61;100.00;100689.44;5075361;28;20043;-66
2020/12/22 12:34:07;;;;;;;1.70;1.60;;;;;;;12.63;100.00;100689.31;5060573;28;20052;-66
2020/12/22 12:37:06;;;;;;;3.10;1.58;;;;;;;12.64;100.00;100685.66;5060259;28;20047;-67
2020/12/22 12:39:53;;;;;;;2.92;1.80;;;;;;;12.66;100.00;100684.53;5074359;28;20082;-67
2020/12/22 12:42:41;;;;;;;2.00;1.20;;;;;;;12.67;100.00;100680.84;5073978;28;20122;-67
2020/12/22 12:45:26;;;;;;;3.15;1.50;;;;;;;12.71;100.00;100687.56;5060141;28;20113;-67
2020/12/22 12:48:19;;;;;;;2.28;1.10;;;;;;;12.75;100.00;100689.00;5059602;28;20047;-67